Date,TemperatureHighF,TemperatureAvgF,TemperatureLowF,DewpointHighF,DewpointAvgF,DewpointLowF,HumidityHigh,HumidityAvg,HumidityLow,PressureMaxIn,PressureMinIn,WindSpeedMaxMPH,WindSpeedAvgMPH,GustSpeedMaxMPH,PrecipitationSumIn
2013-9-1,72,60,53,56,50,42,89,70,43,0.00,40.00,16,9,22,0.00
2013-9-2,80,63,50,51,46,43,87,57,30,0.00,40.00,12,9,19,0.00
2013-9-3,86,67,59,58,54,50,77,63,37,0.00,40.00,14,11,18,0.00
2013-9-4,82,68,55,60,50,41,88,56,32,0.00,40.00,21,-5,27,0.00
2013-9-5,87,68,60,60,49,42,65,52,36,0.00,40.00,17,14,20,0.00
2013-9-6,93,78,63,62,60,57,89,59,31,0.00,40.00,12,8,16,0.00
2013-9-7,83,72,66,63,57,-100,87,64,43,0.00,40.00,17,12,26,0.00
2013-9-8,82,69,62,65,60,57,90,75,43,0.00,40.00,15,8,21,0.00
2013-9-9,76,68,64,65,61,56,90,80,51,0.00,40.00,19,11,26,0.00
2013-9-10,73,62,54,57,53,51,88,72,49,0.00,40.00,12,8,16,0.00
2013-9-11,77,63,56,55,50,40,81,63,34,0.00,40.00,16,7,19,0.00
2013-9-12,72,61,50,46,42,38,75,52,31,0.00,40.00,10,6,17,0.00
2013-9-13,78,63,51,48,44,40,82,54,29,0.00,40.00,18,13,23,0.00
2013-9-14,61,58,57,57,49,-100,90,76,52,0.00,40.00,16,11,21,0.00
2013-9-15,64,54,44,56,43,36,90,69,36,0.00,40.00,21,10,31,0.00
2013-9-16,68,55,44,49,44,40,90,68,39,0.00,40.00,24,15,35,0.00
2013-9-17,70,61,54,56,52,46,89,73,56,0.00,40.00,22,18,30,0.00
2013-9-18,65,61,59,60,58,53,89,88,73,0.00,40.00,19,15,28,0.00
2013-9-19,65,56,48,55,46,40,89,71,49,0.00,40.00,25,16,32,0.00
2013-9-20,63,52,42,44,36,30,85,58,31,0.00,40.00,19,12,26,0.00
2013-9-21,69,52,41,41,35,-100,87,59,30,0.00,40.00,21,15,26,0.00
2013-9-22,87,67,52,51,47,41,82,52,28,0.00,40.00,27,20,34,0.00
2013-9-23,74,64,55,56,49,46,89,61,43,0.00,40.00,24,16,35,0.00
2013-9-24,75,55,48,52,46,33,90,74,21,0.00,40.00,10,6,14,0.00
2013-9-25,76,63,54,50,47,39,80,57,36,0.00,40.00,30,19,39,0.00
2013-9-26,69,61,49,56,51,43,85,69,50,0.00,40.00,23,14,27,0.00
2013-9-27,54,49,46,45,43,41,90,78,66,0.00,40.00,17,12,22,0.00
2013-9-28,62,49,44,45,36,-100,90,66,33,0.00,40.00,19,11,27,0.00
2013-9-29,73,56,44,42,38,35,74,53,27,0.00,40.00,22,12,29,0.00
2013-9-30,74,62,50,47,41,39,78,49,29,0.00,40.00,27,9,34,0.00